• Join FlightAware (Why Join?)
  • Login
  • US Flag 
09:18PM EDT


 

Airport Tracker/Info


-or-


 

Live Flight TrackerFlight Track Log ✈ AAR8735 ✈ 18-Apr-2014 ✈ RKSS / GMP - RKJY / RSU

Flight Track Log - Related Links

Times and Time Zones

All times are in EDT time to prevent confusion due to time zone crossing. See the AAR8735 flight status page for this flight to view local times or setup timezone preferences in your user account.

Time Position Orientation Groundspeed Altitude Reporting Facility
EDT Latitude Longitude Course Direction KTS MPH feet Rate Location/Type
01:37AM 37.6211 126.6984 360° North 173 199 5,000  Level FlightAware ADS-B (RKSM / SSN)
01:38AM 37.6120 126.6620 252° West 275 316 6,300 3,300 Climbing FlightAware ADS-B (RKSM / SSN)
01:38AM 37.6033 126.6502 227° Southwest 279 321 7,000 4,380 Climbing FlightAware ADS-B (RKSM / SSN)
01:38AM 37.5983 126.6433 228° Southwest 277 319 7,400 4,800 Climbing FlightAware ADS-B (RKSM / SSN)
01:38AM 37.5935 126.6373 225° Southwest 275 316 7,800 4,200 Climbing FlightAware ADS-B (RKSM / SSN)
01:38AM 37.5890 126.6313 227° Southwest 275 316 8,100 3,000 Climbing FlightAware ADS-B (RKSM / SSN)
01:38AM 37.5847 126.6255 227° Southwest 278 320 8,300 3,000 Climbing FlightAware ADS-B (RKSM / SSN)
01:38AM 37.5832 126.6236 225° Southwest 279 321 8,600 3,600 Climbing FlightAware ADS-B (RKSM / SSN)
01:38AM 37.5751 126.6126 227° Southwest 288 331 8,900 3,600 Climbing FlightAware ADS-B (RKSM / SSN)
01:39AM 37.5706 126.6065 227° Southwest 289 333 9,500 3,600 Climbing FlightAware ADS-B (RKSM / SSN)
01:39AM 37.5621 126.5949 227° Southwest 287 330 9,800 3,420 Climbing FlightAware ADS-B (RKSM / SSN)
01:39AM 37.5543 126.5862 360° North 285 328 10,300 2,520 Climbing FlightAware ADS-B (RKSM / SSN)
01:41AM 37.3199 126.6367 166° South 380 437 16,000 2,400 Climbing FlightAware ADS-B (RKSM / SSN)
01:41AM 37.3012 126.6425 166° South 383 441 16,200 1,800 Climbing FlightAware ADS-B (RKSM / SSN)
01:41AM 37.2836 126.6480 166° South 396 456 16,600 2,520 Climbing FlightAware ADS-B (RKSM / SSN)
01:42AM 37.2646 126.6542 166° South 400 460 17,100 3,300 Climbing FlightAware ADS-B (RKSM / SSN)
01:42AM 37.2462 126.6600 166° South 393 452 17,700 3,420 Climbing FlightAware ADS-B (RKSM / SSN)
01:42AM 37.2270 126.6662 166° South 384 442 18,200 2,400 Climbing FlightAware ADS-B (RKSM / SSN)
01:42AM 37.2091 126.6718 166° South 388 447 18,500 1,560 Climbing FlightAware ADS-B (RKSM / SSN)
01:42AM 37.1923 126.6770 360° North 395 455 18,700 2,340 Climbing FlightAware ADS-B (RKSM / SSN)
01:44AM 36.9453 126.7552 360° North 415 478 23,800 2,460 Climbing FlightAware ADS-B (RKSM / SSN)
01:47AM 36.7203 126.8495 161° South  Level Estimated
01:48AM 36.6180 126.8922 161° South  Level Estimated
01:49AM 36.5157 126.9347 162° South  Level Estimated
01:50AM 36.4133 126.9772 162° South  Level Estimated
01:51AM 36.3110 127.0195 162° South  Level Estimated
01:52AM 36.2086 127.0617 162° South  Level Estimated
01:53AM 36.1062 127.1038 162° South  Level Estimated
01:54AM 36.0038 127.1458 162° South  Level Estimated
01:55AM 35.9014 127.1877 162° South  Level Estimated
01:56AM 35.7990 127.2295 162° South  Level Estimated
01:57AM 35.6966 127.2711 162° South  Level Estimated
01:58AM 35.5941 127.3127 162° South  Level Estimated
01:59AM 35.4916 127.3542 162° South  Level Estimated
02:00AM 35.3892 127.3955 162° South  Level Estimated
02:01AM 35.2867 127.4368 162° South  Level Estimated
02:02AM 35.1842 127.4779 162° South  Level Estimated
02:03AM 35.0816 127.5190 162° South  Level Estimated
02:04AM 34.9791 127.5599 162° South  Level Estimated
02:05AM 34.8765 127.6007 162° South  Level Estimated
02:06AM 34.8398 127.6153 162° South  Level Estimated
02:07AM 34.8398 127.6153 North  Level Estimated
02:08AM 34.8398 127.6153 North  Level Estimated
02:09AM 34.8398 127.6153 North  Level Estimated
02:10AM 34.8398 127.6153 North  Level Estimated
02:11AM 34.8398 127.6153 North  Level Estimated
02:12AM 34.8398 127.6153 North  Level Estimated
02:13AM 34.8398 127.6153 North  Level Estimated
02:14AM 34.8398 127.6153 North  Level Estimated
02:15AM 34.8398 127.6153 North  Level Estimated
02:16AM 34.8398 127.6153 North  Level Estimated
02:17AM 34.8398 127.6153 North  Level Estimated
02:18AM 34.8398 127.6153 North  Level Estimated